Terminal Aerodrome Forecast
Issued by NWS

Home | Current Version | Previous Version | Text Only | Print | Product List | Glossary On
Versions: 1 2 3 4 5 6 7 8 9 10 11 12
000
FTUS44 KEPZ 261100
TAFLRU
TAF
KLRU 261127Z 2612/2712 VRB03KT P6SM SKC
     FM261800 06005G14KT P6SM FEW090
     FM270200 27008G15KT P6SM FEW090=

USA.gov is the U.S. government's official web portal to all federal, state and local government web resources and services.